Terminal Aerodrome Forecast
Issued by NWS

Home | Current Version | Previous Version | Text Only | Print | Product List | Glossary On
Versions: 1 2 3 4 5 6 7 8 9 10 11 12 13 14
000
FTAK31 PANC 172333
TAFAHO
TAF
PAHO 172333Z 1800/1824 25007KT P6SM VCSH SCT025 BKN050
     FM180500 VRB03KT P6SM -SHRA SCT015 OVC025
     FM182100 25007KT P6SM VCSH SCT025 BKN050=

USA.gov is the U.S. government's official web portal to all federal, state and local government web resources and services.